createdAt,value
2023-02-06T00:01:29.109Z,5.43
2023-02-06T00:03:57.081Z,5.47
2023-02-06T00:06:25.129Z,5.23
2023-02-06T00:08:53.189Z,6.23
2023-02-06T00:11:21.808Z,5.40
2023-02-06T00:13:51.429Z,5.23
2023-02-06T00:16:22.073Z,5.37
2023-02-06T00:18:51.199Z,5.60
2023-02-06T00:21:21.992Z,5.20
2023-02-06T00:23:50.583Z,5.47
2023-02-06T00:26:19.207Z,5.07
2023-02-06T00:28:47.747Z,5.47
2023-02-06T00:31:17.653Z,5.40
2023-02-06T00:33:45.858Z,4.83
2023-02-06T00:36:13.917Z,5.10
2023-02-06T00:38:41.977Z,5.47
2023-02-06T00:41:10.050Z,4.70
2023-02-06T00:43:38.079Z,4.87
2023-02-06T00:46:06.458Z,5.87
2023-02-06T00:48:35.895Z,4.80
2023-02-06T00:51:03.953Z,5.73
2023-02-06T00:53:31.949Z,5.87
2023-02-06T00:55:59.996Z,5.27
2023-02-06T00:58:31.303Z,5.33
2023-02-06T01:00:59.338Z,5.60
2023-02-06T01:03:27.550Z,5.00
2023-02-06T01:05:56.986Z,4.97
2023-02-06T01:08:25.028Z,6.23
2023-02-06T01:10:53.149Z,5.20
2023-02-06T01:13:21.248Z,5.67
2023-02-06T01:15:51.125Z,5.53
2023-02-06T01:18:19.399Z,5.23
2023-02-06T01:20:47.430Z,5.53
2023-02-06T01:23:16.876Z,5.60
2023-02-06T01:25:44.932Z,5.23
2023-02-06T01:28:12.914Z,5.77
2023-02-06T01:30:41.014Z,5.93
2023-02-06T01:33:09.031Z,5.67
2023-02-06T01:35:37.396Z,5.20
2023-02-06T01:38:05.610Z,5.40
2023-02-06T01:40:35.102Z,5.10
2023-02-06T01:43:03.156Z,5.70
2023-02-06T01:45:43.929Z,5.13
2023-02-06T01:48:16.921Z,5.23
2023-02-06T01:50:48.681Z,5.30
2023-02-06T01:53:19.218Z,5.60
2023-02-06T01:55:50.829Z,5.60
2023-02-06T01:58:22.203Z,5.20
2023-02-06T02:00:50.567Z,5.90
2023-02-06T02:03:18.823Z,5.47
2023-02-06T02:05:48.414Z,6.07
2023-02-06T02:08:19.658Z,5.10
2023-02-06T02:10:49.202Z,5.67
2023-02-06T02:13:17.383Z,5.83
2023-02-06T02:15:53.886Z,5.43
2023-02-06T02:18:38.959Z,5.20
2023-02-06T02:21:48.003Z,5.23
2023-02-06T02:24:23.727Z,6.07
2023-02-06T02:27:51.904Z,5.57
2023-02-06T02:30:52.508Z,5.57
2023-02-06T02:33:44.392Z,5.93
2023-02-06T02:36:20.474Z,5.13
2023-02-06T02:39:00.531Z,4.87
2023-02-06T02:41:35.096Z,5.10
2023-02-06T02:44:08.305Z,5.20
2023-02-06T02:46:39.809Z,4.80
2023-02-06T02:49:12.321Z,5.73
2023-02-06T02:51:43.087Z,5.83
2023-02-06T02:54:11.356Z,5.90
2023-02-06T02:56:39.677Z,5.37
2023-02-06T02:59:13.071Z,6.23
2023-02-06T03:01:49.817Z,6.77
2023-02-06T03:04:23.983Z,6.27
2023-02-06T03:07:04.674Z,6.50
2023-02-06T03:09:52.417Z,5.30
2023-02-06T03:12:25.770Z,5.70
2023-02-06T03:14:58.574Z,6.00
2023-02-06T03:17:34.302Z,5.80
2023-02-06T03:20:05.455Z,6.33
2023-02-06T03:22:37.365Z,5.90
2023-02-06T03:25:10.647Z,5.77
2023-02-06T03:27:42.503Z,5.23
2023-02-06T03:30:13.675Z,5.23
2023-02-06T03:32:43.930Z,5.77
2023-02-06T03:35:17.257Z,5.90
2023-02-06T03:37:47.217Z,5.53
2023-02-06T03:40:15.827Z,5.77
2023-02-06T03:42:48.889Z,5.67
2023-02-06T03:45:21.261Z,5.17
2023-02-06T03:47:51.210Z,5.47
2023-02-06T03:50:19.534Z,6.00
2023-02-06T03:52:51.689Z,5.53
2023-02-06T03:55:21.966Z,6.43
2023-02-06T03:57:54.465Z,5.80
2023-02-06T04:00:22.860Z,6.07
2023-02-06T04:02:53.490Z,6.20
2023-02-06T04:05:21.972Z,6.13
2023-02-06T04:07:52.670Z,5.53
2023-02-06T04:10:20.980Z,5.67
2023-02-06T04:12:49.074Z,5.80
2023-02-06T04:15:17.172Z,5.60
2023-02-06T04:17:58.816Z,5.60
2023-02-06T04:20:28.404Z,5.73
2023-02-06T04:22:57.969Z,6.23
2023-02-06T04:25:26.363Z,5.73
2023-02-06T04:27:54.429Z,4.67
2023-02-06T04:30:22.649Z,5.27
2023-02-06T04:32:50.722Z,4.90
2023-02-06T04:35:18.850Z,5.20
2023-02-06T04:37:46.874Z,5.43
2023-02-06T04:40:16.294Z,5.13
2023-02-06T04:42:44.402Z,5.13
2023-02-06T04:45:12.414Z,5.27
2023-02-06T04:47:40.828Z,5.80
2023-02-06T04:50:10.534Z,4.90
2023-02-06T04:52:38.604Z,5.33
2023-02-06T04:55:07.183Z,5.47
2023-02-06T04:57:36.650Z,4.73
2023-02-06T05:00:06.218Z,5.97
2023-02-06T05:02:37.563Z,5.87
2023-02-06T05:05:06.740Z,4.63
2023-02-06T05:07:35.098Z,5.67
2023-02-06T05:10:03.736Z,5.83
2023-02-06T05:12:31.638Z,5.67
2023-02-06T05:15:01.034Z,5.23
2023-02-06T05:17:29.032Z,5.53
2023-02-06T05:19:58.434Z,5.03
2023-02-06T05:22:26.903Z,5.23
2023-02-06T05:24:55.142Z,5.73
2023-02-06T05:27:23.186Z,4.73
2023-02-06T05:29:51.182Z,5.40
2023-02-06T05:32:20.585Z,5.73
2023-02-06T05:34:48.581Z,6.03
2023-02-06T05:37:16.538Z,6.80
2023-02-06T05:39:44.535Z,5.50
2023-02-06T05:42:12.542Z,4.80
2023-02-06T05:44:40.596Z,5.47
2023-02-06T05:47:08.634Z,6.13
2023-02-06T05:49:37.991Z,5.60
2023-02-06T05:52:06.168Z,5.40
2023-02-06T05:54:34.151Z,5.03
2023-02-06T05:57:02.200Z,6.80
2023-02-06T05:59:30.213Z,5.93
2023-02-06T06:01:58.317Z,5.60
2023-02-06T06:04:26.663Z,6.73
2023-02-06T06:06:56.176Z,5.73
2023-02-06T06:09:24.568Z,5.67
2023-02-06T06:11:52.542Z,6.17
2023-02-06T06:14:20.580Z,6.17
2023-02-06T06:16:48.582Z,5.77
2023-02-06T06:19:16.611Z,5.50
2023-02-06T06:21:44.593Z,5.47
2023-02-06T06:24:13.939Z,5.23
2023-02-06T06:26:41.963Z,5.33
2023-02-06T06:29:10.007Z,6.53
2023-02-06T06:31:37.986Z,6.27
2023-02-06T06:34:06.019Z,6.00
2023-02-06T06:36:33.993Z,5.83
2023-02-06T06:39:02.120Z,6.07
2023-02-06T06:41:31.503Z,5.73
2023-02-06T06:44:00.436Z,6.00
2023-02-06T06:46:28.501Z,5.47
2023-02-06T06:48:56.679Z,6.40
2023-02-06T06:51:26.707Z,5.10
2023-02-06T06:53:54.685Z,5.60
2023-02-06T06:56:22.719Z,5.97
2023-02-06T06:58:52.189Z,6.50
2023-02-06T07:01:20.612Z,6.50
2023-02-06T07:03:48.663Z,6.07
2023-02-06T07:06:17.144Z,6.50
2023-02-06T07:08:45.343Z,6.27
2023-02-06T07:11:15.272Z,6.00
2023-02-06T07:13:44.033Z,6.17
2023-02-06T07:16:14.060Z,6.00
2023-02-06T07:18:43.121Z,6.47
2023-02-06T07:21:11.767Z,6.03
2023-02-06T07:23:40.230Z,6.57
2023-02-06T07:26:08.285Z,6.47
2023-02-06T07:28:36.456Z,6.63
2023-02-06T07:31:05.845Z,5.93
2023-02-06T07:33:35.700Z,7.47
2023-02-06T07:36:04.234Z,6.90
2023-02-06T07:38:32.444Z,6.40
2023-02-06T07:41:02.614Z,6.27
2023-02-06T07:43:31.202Z,7.10
2023-02-06T07:46:01.843Z,7.87
2023-02-06T07:48:30.135Z,7.83
2023-02-06T07:51:05.777Z,8.07
2023-02-06T07:53:33.769Z,7.90
2023-02-06T07:56:02.029Z,7.43
2023-02-06T07:58:30.040Z,6.53
2023-02-06T08:01:00.700Z,7.73
2023-02-06T08:03:28.736Z,7.57
2023-02-06T08:05:56.758Z,7.30
2023-02-06T08:08:26.495Z,7.47
2023-02-06T08:10:54.524Z,7.60
2023-02-06T08:13:22.684Z,8.57
2023-02-06T08:15:50.742Z,7.73
2023-02-06T08:18:18.758Z,8.30
2023-02-06T08:20:46.746Z,11.00
2023-02-06T08:23:14.776Z,9.63
2023-02-06T08:25:44.235Z,8.03
2023-02-06T08:28:14.922Z,7.17
2023-02-06T08:30:43.421Z,8.60
2023-02-06T08:33:11.510Z,7.80
2023-02-06T08:35:39.534Z,6.47
2023-02-06T08:38:07.512Z,7.13
2023-02-06T08:40:35.749Z,6.07
2023-02-06T08:43:05.224Z,6.30
2023-02-06T08:45:33.520Z,7.93
2023-02-06T08:48:01.661Z,6.27
2023-02-06T08:50:29.804Z,7.00
2023-02-06T08:52:57.835Z,6.03
2023-02-06T08:55:25.968Z,6.97
2023-02-06T08:57:54.307Z,5.90
2023-02-06T09:00:24.136Z,6.27
2023-02-06T09:02:53.884Z,6.93
2023-02-06T09:05:22.226Z,6.07
2023-02-06T09:07:50.617Z,6.23
2023-02-06T09:10:27.071Z,5.73
2023-02-06T09:12:55.904Z,6.20
2023-02-06T09:15:25.384Z,6.20
2023-02-06T09:17:53.466Z,5.23
2023-02-06T09:20:22.634Z,5.37
2023-02-06T09:22:50.640Z,6.20
2023-02-06T09:25:18.704Z,5.80
2023-02-06T09:27:47.244Z,6.33
2023-02-06T09:30:16.243Z,6.57
2023-02-06T09:32:45.840Z,5.93
2023-02-06T09:35:13.854Z,6.00
2023-02-06T09:37:41.926Z,6.40
2023-02-06T09:40:13.600Z,5.87
2023-02-06T09:42:42.823Z,6.17
2023-02-06T09:45:15.845Z,5.90
2023-02-06T09:47:49.322Z,6.23
2023-02-06T09:50:25.194Z,6.10
2023-02-06T09:53:06.215Z,5.57
2023-02-06T09:55:40.880Z,6.40
2023-02-06T09:58:19.800Z,6.27
2023-02-06T10:00:53.731Z,6.60
2023-02-06T10:03:43.284Z,5.90
2023-02-06T10:06:19.137Z,6.10
2023-02-06T10:08:54.712Z,6.77
2023-02-06T10:11:36.426Z,6.93
2023-02-06T10:14:07.878Z,6.00
2023-02-06T10:16:40.691Z,5.90
2023-02-06T10:19:16.736Z,6.77
2023-02-06T10:21:49.839Z,7.20
2023-02-06T10:24:23.611Z,9.15
2023-02-06T10:26:53.944Z,8.77
2023-02-06T10:29:27.551Z,8.33
2023-02-06T10:32:05.975Z,7.10
2023-02-06T10:34:48.540Z,6.77
2023-02-06T10:37:31.526Z,6.80
2023-02-06T10:40:19.586Z,8.43
2023-02-06T10:42:54.895Z,11.53
2023-02-06T10:45:35.325Z,8.57
2023-02-06T10:48:11.737Z,8.27
2023-02-06T10:50:45.916Z,8.57
2023-02-06T10:53:19.145Z,9.20
2023-02-06T10:55:52.597Z,9.23
2023-02-06T10:58:25.497Z,8.80
2023-02-06T11:00:54.894Z,9.47
2023-02-06T11:03:26.911Z,8.33
2023-02-06T11:05:57.415Z,8.97
2023-02-06T11:08:29.260Z,8.90
2023-02-06T11:10:58.046Z,8.47
2023-02-06T11:13:29.302Z,10.20
2023-02-06T11:16:02.683Z,9.13
2023-02-06T11:18:34.027Z,9.37
2023-02-06T11:21:04.650Z,9.27
2023-02-06T11:23:34.685Z,8.87
2023-02-06T11:26:10.619Z,9.07
2023-02-06T11:28:42.016Z,9.17
2023-02-06T11:31:11.034Z,9.00
2023-02-06T11:33:49.033Z,8.83
2023-02-06T11:36:31.966Z,8.50
2023-02-06T11:39:02.292Z,7.30
2023-02-06T11:41:32.033Z,8.37
2023-02-06T11:44:06.592Z,9.17
2023-02-06T11:46:36.690Z,9.10
2023-02-06T11:49:08.476Z,8.20
2023-02-06T11:51:49.905Z,7.00
2023-02-06T11:54:24.442Z,7.57
2023-02-06T11:57:04.976Z,9.23
2023-02-06T11:59:35.424Z,7.07
2023-02-06T12:02:22.407Z,7.20
2023-02-06T12:04:51.375Z,7.47
2023-02-06T12:07:28.751Z,8.10
2023-02-06T12:09:57.076Z,7.17
2023-02-06T12:12:29.491Z,7.20
2023-02-06T12:15:18.209Z,6.60
2023-02-06T12:17:56.458Z,7.07
2023-02-06T12:20:27.858Z,7.97
2023-02-06T12:23:01.149Z,8.03
2023-02-06T12:25:33.918Z,6.90
2023-02-06T12:28:10.426Z,8.50
2023-02-06T12:30:42.948Z,7.40
2023-02-06T12:33:16.403Z,7.43
2023-02-06T12:35:47.618Z,7.17
2023-02-06T12:38:24.199Z,6.93
2023-02-06T12:41:15.733Z,7.20
2023-02-06T12:43:48.739Z,7.40
2023-02-06T12:46:21.678Z,7.27
2023-02-06T12:48:54.909Z,7.73
2023-02-06T12:51:27.748Z,7.47
2023-02-06T12:54:01.505Z,8.37
2023-02-06T12:56:34.254Z,7.40
2023-02-06T12:59:18.903Z,7.63
2023-02-06T13:01:54.718Z,7.63
2023-02-06T13:04:26.500Z,7.63
2023-02-06T13:06:58.076Z,7.87
2023-02-06T13:09:32.354Z,7.20
2023-02-06T13:12:09.570Z,6.77
2023-02-06T13:14:39.859Z,6.47
2023-02-06T13:17:11.706Z,7.73
2023-02-06T13:20:01.748Z,7.80
2023-02-06T13:22:43.899Z,7.50
2023-02-06T13:25:54.593Z,7.90
2023-02-06T13:28:57.128Z,6.43
2023-02-06T13:31:35.413Z,5.63
2023-02-06T13:34:11.977Z,6.13
2023-02-06T13:36:52.567Z,6.20
2023-02-06T13:39:29.897Z,7.33
2023-02-06T13:42:02.939Z,7.13
2023-02-06T13:44:34.978Z,6.70
2023-02-06T13:47:25.230Z,7.30
2023-02-06T13:50:32.532Z,6.17
2023-02-06T13:53:33.540Z,8.77
2023-02-06T13:56:11.725Z,5.53
2023-02-06T13:58:48.684Z,7.53
2023-02-06T14:01:22.873Z,6.03
2023-02-06T14:03:52.356Z,6.87
2023-02-06T14:06:49.524Z,6.37
2023-02-06T14:09:31.797Z,5.17
2023-02-06T14:15:31.171Z,5.50
2023-02-06T14:18:24.255Z,5.00
2023-02-06T14:21:02.808Z,5.53
2023-02-06T14:23:40.641Z,5.90
2023-02-06T14:26:25.666Z,5.93
2023-02-06T14:29:02.959Z,6.17
2023-02-06T14:31:46.622Z,4.87
2023-02-06T14:34:38.637Z,5.83
2023-02-06T14:37:29.451Z,5.60
2023-02-06T14:40:04.506Z,5.70
2023-02-06T14:42:36.769Z,5.23
2023-02-06T14:45:07.594Z,7.03
2023-02-06T14:47:42.369Z,5.03
2023-02-06T14:50:19.676Z,5.63
2023-02-06T14:52:51.648Z,6.30
2023-02-06T14:55:37.628Z,5.57
2023-02-06T14:58:07.622Z,5.23
2023-02-06T15:00:35.640Z,6.03
2023-02-06T15:03:06.291Z,7.03
2023-02-06T15:05:36.705Z,6.60
2023-02-06T15:08:06.600Z,6.43
2023-02-06T15:10:37.822Z,5.80
2023-02-06T15:13:06.209Z,5.43
2023-02-06T15:15:35.539Z,6.10
2023-02-06T15:18:05.843Z,8.00
2023-02-06T15:20:40.433Z,7.13
2023-02-06T15:23:18.118Z,11.40
2023-02-06T15:26:06.439Z,16.60
2023-02-06T15:28:37.927Z,28.23
2023-02-06T15:31:16.042Z,16.83
2023-02-06T15:33:44.781Z,13.03
2023-02-06T15:36:23.545Z,13.70
2023-02-06T15:38:52.482Z,13.40
2023-02-06T15:41:20.904Z,14.30
2023-02-06T15:43:49.511Z,10.47
2023-02-06T15:46:17.805Z,8.67
2023-02-06T15:48:51.695Z,10.43
2023-02-06T15:51:27.467Z,9.77
2023-02-06T15:54:08.152Z,8.23
2023-02-06T15:56:38.878Z,9.60
2023-02-06T15:59:08.591Z,7.97
2023-02-06T16:01:42.369Z,6.33
2023-02-06T16:04:14.766Z,7.67
2023-02-06T16:06:44.439Z,7.00
2023-02-06T16:09:20.610Z,6.57
2023-02-06T16:11:52.226Z,7.87
2023-02-06T16:14:23.919Z,7.20
2023-02-06T16:17:01.015Z,7.10
2023-02-06T16:19:40.907Z,6.70
2023-02-06T16:22:18.981Z,6.77
2023-02-06T16:24:47.364Z,5.90
2023-02-06T16:27:21.493Z,5.77
2023-02-06T16:29:57.374Z,6.07
2023-02-06T16:32:29.558Z,6.90
2023-02-06T16:34:57.810Z,5.57
2023-02-06T16:37:29.168Z,7.37
2023-02-06T16:39:57.251Z,7.27
2023-02-06T16:42:27.126Z,7.30
2023-02-06T16:45:00.305Z,7.23
2023-02-06T16:47:28.977Z,6.10
2023-02-06T16:49:57.016Z,6.50
2023-02-06T16:52:29.031Z,6.00
2023-02-06T16:54:58.990Z,7.30
2023-02-06T16:57:31.419Z,7.33
2023-02-06T16:59:59.729Z,8.33
2023-02-06T17:02:28.139Z,7.93
2023-02-06T17:04:56.549Z,7.67
2023-02-06T17:07:28.516Z,9.03
2023-02-06T17:09:57.285Z,7.87
2023-02-06T17:12:25.772Z,7.87
2023-02-06T17:14:53.906Z,8.70
2023-02-06T17:17:23.738Z,7.80
2023-02-06T17:19:53.455Z,7.73
2023-02-06T17:22:21.920Z,7.73
2023-02-06T17:24:51.597Z,8.73
2023-02-06T17:27:21.877Z,7.03
2023-02-06T17:29:50.825Z,6.70
2023-02-06T17:32:22.239Z,7.27
2023-02-06T17:34:53.973Z,8.03
2023-02-06T17:37:22.114Z,7.20
2023-02-06T17:39:52.886Z,7.73
2023-02-06T17:42:23.213Z,7.87
2023-02-06T17:44:51.478Z,8.03
2023-02-06T17:47:19.668Z,8.37
2023-02-06T17:49:47.834Z,7.67
2023-02-06T17:52:16.189Z,8.27
2023-02-06T17:54:44.472Z,7.73
2023-02-06T17:57:14.374Z,8.60
2023-02-06T17:59:42.408Z,7.43
2023-02-06T18:02:13.199Z,7.90
2023-02-06T18:04:41.367Z,7.77
2023-02-06T18:07:09.433Z,7.77
2023-02-06T18:09:37.989Z,6.73
2023-02-06T18:12:06.110Z,7.30
2023-02-06T18:14:35.632Z,6.97
2023-02-06T18:17:04.575Z,6.93
2023-02-06T18:19:40.607Z,7.07
2023-02-06T18:22:09.001Z,6.97
2023-02-06T18:24:37.327Z,7.53
2023-02-06T18:27:05.632Z,7.20
2023-02-06T18:29:48.580Z,6.37
2023-02-06T18:32:18.986Z,6.93
2023-02-06T18:34:47.354Z,6.57
2023-02-06T18:37:15.372Z,6.30
2023-02-06T18:39:43.538Z,6.03
2023-02-06T18:42:30.000Z,6.20
2023-02-06T18:44:59.439Z,6.73
2023-02-06T18:47:27.518Z,6.90
2023-02-06T18:49:55.569Z,6.80
2023-02-06T18:52:23.600Z,6.50
2023-02-06T18:54:51.658Z,7.10
2023-02-06T18:57:19.686Z,6.47
2023-02-06T18:59:47.751Z,7.00
2023-02-06T19:02:17.656Z,7.73
2023-02-06T19:04:45.803Z,8.20
2023-02-06T19:07:13.796Z,8.20
2023-02-06T19:09:41.812Z,8.83
2023-02-06T19:12:09.941Z,10.53
2023-02-06T19:14:37.994Z,10.70
2023-02-06T19:17:06.003Z,11.03
2023-02-06T19:19:35.492Z,11.87
2023-02-06T19:22:03.521Z,11.00
2023-02-06T19:24:31.735Z,10.93
2023-02-06T19:27:01.090Z,13.03
2023-02-06T19:29:35.548Z,10.80
2023-02-06T19:32:05.629Z,10.10
2023-02-06T19:34:36.303Z,9.07
2023-02-06T19:37:04.817Z,8.97
2023-02-06T19:39:34.383Z,8.70
2023-02-06T19:42:04.551Z,8.57
2023-02-06T19:44:33.705Z,8.63
2023-02-06T19:47:02.290Z,8.70
2023-02-06T19:49:31.091Z,7.67
2023-02-06T19:52:00.773Z,7.40
2023-02-06T19:54:29.365Z,7.63
2023-02-06T19:56:57.458Z,7.60
2023-02-06T19:59:28.044Z,7.90
2023-02-06T20:01:57.499Z,8.57
2023-02-06T20:04:27.143Z,6.53
2023-02-06T20:06:55.920Z,7.87
2023-02-06T20:09:26.998Z,6.90
2023-02-06T20:11:55.993Z,7.00
2023-02-06T20:14:24.782Z,6.30
2023-02-06T20:16:53.230Z,6.67
2023-02-06T20:19:24.329Z,6.67
2023-02-06T20:21:55.112Z,7.27
2023-02-06T20:24:26.634Z,7.30
2023-02-06T20:26:56.942Z,7.20
2023-02-06T20:29:26.826Z,7.40
2023-02-06T20:31:55.767Z,6.87
2023-02-06T20:34:24.059Z,7.23
2023-02-06T20:36:52.834Z,8.13
2023-02-06T20:39:21.471Z,8.37
2023-02-06T20:41:50.952Z,9.03
2023-02-06T20:44:20.643Z,9.43
2023-02-06T20:46:49.443Z,8.13
2023-02-06T20:49:19.260Z,9.73
2023-02-06T20:51:48.946Z,9.27
2023-02-06T20:54:17.476Z,11.30
2023-02-06T20:56:45.556Z,10.57
2023-02-06T20:59:16.388Z,10.63
2023-02-06T21:01:44.635Z,10.30
2023-02-06T21:04:14.800Z,10.13
2023-02-06T21:06:43.374Z,11.27
2023-02-06T21:09:12.421Z,12.37
2023-02-06T21:11:42.750Z,12.43
2023-02-06T21:14:10.993Z,12.57
2023-02-06T21:16:40.621Z,11.13
2023-02-06T21:19:11.086Z,12.20
2023-02-06T21:21:39.746Z,11.33
2023-02-06T21:24:08.903Z,10.57
2023-02-06T21:26:37.555Z,10.13
2023-02-06T21:29:07.749Z,9.73
2023-02-06T21:31:38.588Z,10.03
2023-02-06T21:34:09.909Z,10.73
2023-02-06T21:36:40.100Z,10.73
2023-02-06T21:39:08.963Z,10.60
2023-02-06T21:41:38.041Z,9.73
2023-02-06T21:44:06.458Z,11.87
2023-02-06T21:46:34.730Z,9.53
2023-02-06T21:49:02.897Z,9.83
2023-02-06T21:51:32.272Z,10.00
2023-02-06T21:54:00.275Z,9.47
2023-02-06T21:56:29.600Z,10.07
2023-02-06T21:58:58.256Z,10.93
2023-02-06T22:01:28.330Z,10.67
2023-02-06T22:03:58.129Z,11.23
2023-02-06T22:06:26.285Z,12.80
2023-02-06T22:08:56.922Z,13.07
2023-02-06T22:11:27.339Z,14.70
2023-02-06T22:13:59.548Z,14.40
2023-02-06T22:16:28.058Z,14.90
2023-02-06T22:18:56.614Z,15.53
2023-02-06T22:21:26.522Z,14.90
2023-02-06T22:23:57.921Z,14.43
2023-02-06T22:26:26.881Z,12.83
2023-02-06T22:28:55.122Z,13.30
2023-02-06T22:31:24.964Z,12.10
2023-02-06T22:33:53.388Z,12.70
2023-02-06T22:36:24.781Z,12.07
2023-02-06T22:38:57.806Z,11.13
2023-02-06T22:41:25.855Z,9.90
2023-02-06T22:43:54.227Z,8.17
2023-02-06T22:46:25.006Z,9.47
2023-02-06T22:48:53.306Z,10.53
2023-02-06T22:51:22.332Z,10.00
2023-02-06T22:53:50.779Z,8.63
2023-02-06T22:56:31.441Z,9.73
2023-02-06T22:59:01.806Z,9.20
2023-02-06T23:01:33.057Z,9.83
2023-02-06T23:04:02.034Z,9.40
2023-02-06T23:06:31.210Z,8.00
2023-02-06T23:08:59.872Z,7.93
2023-02-06T23:11:31.424Z,8.47
2023-02-06T23:14:02.800Z,8.30
2023-02-06T23:16:32.589Z,9.00
2023-02-06T23:19:04.425Z,8.73
2023-02-06T23:21:33.532Z,8.90
2023-02-06T23:24:01.718Z,8.63
2023-02-06T23:26:31.951Z,9.27
2023-02-06T23:29:01.210Z,8.50
2023-02-06T23:31:29.767Z,8.63
2023-02-06T23:33:58.033Z,8.63
2023-02-06T23:36:27.839Z,8.47
2023-02-06T23:38:56.583Z,9.20
2023-02-06T23:41:27.154Z,8.13
2023-02-06T23:43:58.242Z,7.43
2023-02-06T23:46:27.257Z,7.70
2023-02-06T23:48:55.828Z,7.77
2023-02-06T23:51:25.047Z,8.27
2023-02-06T23:53:53.747Z,8.50
2023-02-06T23:56:24.362Z,8.70
2023-02-06T23:58:53.528Z,7.57
